aviador You're here:

YNTN Decoded Metar

in
Report Time2018-02-22 14:30:00
UTC Time2018-02-22 14:58:16
Flight Rules ifr IFR
Wind150° at 11 kt
W.Decomp.*RWY 14: 10.8 kt HW 1.9 kt RCW
W.Rank150° ranks 4
Current wind is above 150° avg. (7.7)
Visibility1900 m
Phenomena:Heavy Rain
Clouds:Scattered 003 Hf
Broken 008 Hf
Overcast 038 Hf
Ceiling800 ft
Temp22°C
Dew Point22°C (100% RH)
QNH1005 hPa
Raw Report
SPECI YNTN 221430Z AUTO 15011KT 1900 +RA SCT003 BKN008 OVC038 22/22 Q1005=

Extra information for YNTN:More info

Social comments